Grandview Heights, Ohio
Current Conditions -  °F | °C
As of 4:53 PM on Friday 31 Oct 2014 (Local Time) from KOSU Reporting Station
Light Rain Light Rain  
Wind Chill: 37°   Ceiling: 1500
Heat Index: 42°   Visibility: 10mi
Dew Point: 38°   Wind: 9mph
Humidity: 85%   Direction: 330°NNW
Pressure: 29.86"   Gusts: NA
Location:  39.987°N, 83.0425°W
Report Text: KOSU 312053Z 33008KT 10SM -RA BKN015 OVC027 06/03 A2986 RMK AO2 SLP116 P0002 60003 T00560033 53003
Loading
Personal Weather Stations






























Interactive Weather Map New forecast layout! Learn more

10-Day Weather Forecast

Advertisements
Track Severe Weather on mobile